sensor_id;sensor_type;location;lat;lon;timestamp;P1;durP1;ratioP1;P2;durP2;ratioP2
15776;SDS011;7989;51.198;6.676;2022-08-06T00:01:58;4.47;;;1.50;;
15776;SDS011;7989;51.198;6.676;2022-08-06T00:04:26;2.45;;;1.27;;
15776;SDS011;7989;51.198;6.676;2022-08-06T00:06:53;3.45;;;1.27;;
15776;SDS011;7989;51.198;6.676;2022-08-06T00:09:20;5.15;;;1.45;;
15776;SDS011;7989;51.198;6.676;2022-08-06T00:11:47;2.55;;;1.08;;
15776;SDS011;7989;51.198;6.676;2022-08-06T00:14:14;3.53;;;1.20;;
15776;SDS011;7989;51.198;6.676;2022-08-06T00:16:41;5.97;;;1.58;;
15776;SDS011;7989;51.198;6.676;2022-08-06T00:19:08;4.85;;;1.60;;
15776;SDS011;7989;51.198;6.676;2022-08-06T00:21:36;3.05;;;1.38;;
15776;SDS011;7989;51.198;6.676;2022-08-06T00:24:03;3.95;;;1.35;;
15776;SDS011;7989;51.198;6.676;2022-08-06T00:26:30;3.00;;;1.30;;
15776;SDS011;7989;51.198;6.676;2022-08-06T00:28:57;2.45;;;1.27;;
15776;SDS011;7989;51.198;6.676;2022-08-06T00:31:24;3.20;;;1.73;;
15776;SDS011;7989;51.198;6.676;2022-08-06T00:33:51;4.50;;;1.58;;
15776;SDS011;7989;51.198;6.676;2022-08-06T00:36:20;3.90;;;1.65;;
15776;SDS011;7989;51.198;6.676;2022-08-06T00:38:48;3.58;;;1.48;;
15776;SDS011;7989;51.198;6.676;2022-08-06T00:41:15;5.13;;;1.48;;
15776;SDS011;7989;51.198;6.676;2022-08-06T00:43:43;5.28;;;1.77;;
15776;SDS011;7989;51.198;6.676;2022-08-06T00:46:10;1.60;;;1.25;;
15776;SDS011;7989;51.198;6.676;2022-08-06T00:48:37;6.32;;;1.42;;
15776;SDS011;7989;51.198;6.676;2022-08-06T00:51:04;3.03;;;1.17;;
15776;SDS011;7989;51.198;6.676;2022-08-06T00:53:31;4.32;;;1.85;;
15776;SDS011;7989;51.198;6.676;2022-08-06T00:56:03;4.80;;;1.70;;
15776;SDS011;7989;51.198;6.676;2022-08-06T00:58:31;2.70;;;1.50;;
15776;SDS011;7989;51.198;6.676;2022-08-06T01:00:58;3.45;;;1.10;;
15776;SDS011;7989;51.198;6.676;2022-08-06T01:03:25;3.22;;;1.58;;
15776;SDS011;7989;51.198;6.676;2022-08-06T01:05:51;3.70;;;1.35;;
15776;SDS011;7989;51.198;6.676;2022-08-06T01:08:18;4.25;;;1.67;;
15776;SDS011;7989;51.198;6.676;2022-08-06T01:10:46;4.00;;;1.52;;
15776;SDS011;7989;51.198;6.676;2022-08-06T01:13:14;6.97;;;1.40;;
15776;SDS011;7989;51.198;6.676;2022-08-06T01:15:42;4.30;;;1.88;;
15776;SDS011;7989;51.198;6.676;2022-08-06T01:18:18;2.83;;;1.58;;
15776;SDS011;7989;51.198;6.676;2022-08-06T01:20:51;2.13;;;1.13;;
15776;SDS011;7989;51.198;6.676;2022-08-06T01:23:35;4.22;;;1.30;;
15776;SDS011;7989;51.198;6.676;2022-08-06T01:26:22;2.80;;;1.60;;
15776;SDS011;7989;51.198;6.676;2022-08-06T01:28:58;2.45;;;2.05;;
15776;SDS011;7989;51.198;6.676;2022-08-06T01:31:30;4.55;;;2.80;;
15776;SDS011;7989;51.198;6.676;2022-08-06T01:34:03;2.60;;;1.90;;
15776;SDS011;7989;51.198;6.676;2022-08-06T01:36:36;3.95;;;1.50;;
15776;SDS011;7989;51.198;6.676;2022-08-06T01:39:11;2.55;;;1.58;;
15776;SDS011;7989;51.198;6.676;2022-08-06T01:41:43;3.47;;;1.40;;
15776;SDS011;7989;51.198;6.676;2022-08-06T01:44:15;2.92;;;1.50;;
15776;SDS011;7989;51.198;6.676;2022-08-06T01:46:44;3.83;;;1.33;;
15776;SDS011;7989;51.198;6.676;2022-08-06T01:49:15;2.60;;;1.10;;
15776;SDS011;7989;51.198;6.676;2022-08-06T01:51:47;2.58;;;1.40;;
15776;SDS011;7989;51.198;6.676;2022-08-06T01:54:17;2.92;;;1.63;;
15776;SDS011;7989;51.198;6.676;2022-08-06T01:56:46;4.05;;;1.35;;
15776;SDS011;7989;51.198;6.676;2022-08-06T01:59:18;3.40;;;1.60;;
15776;SDS011;7989;51.198;6.676;2022-08-06T02:01:49;4.70;;;1.48;;
15776;SDS011;7989;51.198;6.676;2022-08-06T02:04:19;4.72;;;1.70;;
15776;SDS011;7989;51.198;6.676;2022-08-06T02:06:50;2.80;;;1.30;;
15776;SDS011;7989;51.198;6.676;2022-08-06T02:09:18;4.38;;;2.67;;
15776;SDS011;7989;51.198;6.676;2022-08-06T02:11:48;10.20;;;5.68;;
15776;SDS011;7989;51.198;6.676;2022-08-06T02:14:21;13.93;;;12.30;;
15776;SDS011;7989;51.198;6.676;2022-08-06T02:16:50;14.65;;;11.98;;
15776;SDS011;7989;51.198;6.676;2022-08-06T02:19:21;15.32;;;12.57;;
15776;SDS011;7989;51.198;6.676;2022-08-06T02:21:52;11.57;;;8.43;;
15776;SDS011;7989;51.198;6.676;2022-08-06T02:24:21;8.13;;;6.70;;
15776;SDS011;7989;51.198;6.676;2022-08-06T02:26:49;12.63;;;6.63;;
15776;SDS011;7989;51.198;6.676;2022-08-06T02:29:18;18.38;;;15.48;;
15776;SDS011;7989;51.198;6.676;2022-08-06T02:31:47;3.97;;;1.70;;
15776;SDS011;7989;51.198;6.676;2022-08-06T02:34:14;6.00;;;2.50;;
15776;SDS011;7989;51.198;6.676;2022-08-06T02:36:42;3.60;;;1.92;;
15776;SDS011;7989;51.198;6.676;2022-08-06T02:39:14;3.83;;;1.60;;
15776;SDS011;7989;51.198;6.676;2022-08-06T02:41:45;16.13;;;13.50;;
15776;SDS011;7989;51.198;6.676;2022-08-06T02:44:23;17.90;;;16.20;;
15776;SDS011;7989;51.198;6.676;2022-08-06T02:47:02;33.47;;;29.88;;
15776;SDS011;7989;51.198;6.676;2022-08-06T02:49:35;5.47;;;4.63;;
15776;SDS011;7989;51.198;6.676;2022-08-06T02:52:08;9.32;;;5.05;;
15776;SDS011;7989;51.198;6.676;2022-08-06T02:54:42;3.35;;;1.77;;
15776;SDS011;7989;51.198;6.676;2022-08-06T02:57:15;2.92;;;1.60;;
15776;SDS011;7989;51.198;6.676;2022-08-06T02:59:49;4.95;;;2.08;;
15776;SDS011;7989;51.198;6.676;2022-08-06T03:02:19;5.15;;;2.00;;
15776;SDS011;7989;51.198;6.676;2022-08-06T03:04:49;5.38;;;2.17;;
15776;SDS011;7989;51.198;6.676;2022-08-06T03:07:18;3.80;;;1.73;;
15776;SDS011;7989;51.198;6.676;2022-08-06T03:09:47;3.30;;;1.80;;
15776;SDS011;7989;51.198;6.676;2022-08-06T03:12:15;5.05;;;2.40;;
15776;SDS011;7989;51.198;6.676;2022-08-06T03:14:43;6.10;;;2.00;;
15776;SDS011;7989;51.198;6.676;2022-08-06T03:17:13;6.15;;;1.92;;
15776;SDS011;7989;51.198;6.676;2022-08-06T03:19:43;5.13;;;1.80;;
15776;SDS011;7989;51.198;6.676;2022-08-06T03:22:11;3.63;;;1.90;;
15776;SDS011;7989;51.198;6.676;2022-08-06T03:24:39;4.95;;;2.08;;
15776;SDS011;7989;51.198;6.676;2022-08-06T03:27:09;3.80;;;1.95;;
15776;SDS011;7989;51.198;6.676;2022-08-06T03:29:37;4.10;;;1.90;;
15776;SDS011;7989;51.198;6.676;2022-08-06T03:32:06;3.35;;;1.67;;
15776;SDS011;7989;51.198;6.676;2022-08-06T03:34:35;5.50;;;1.73;;
15776;SDS011;7989;51.198;6.676;2022-08-06T03:37:03;5.15;;;2.10;;
15776;SDS011;7989;51.198;6.676;2022-08-06T03:39:31;6.22;;;1.92;;
15776;SDS011;7989;51.198;6.676;2022-08-06T03:41:59;3.50;;;1.52;;
15776;SDS011;7989;51.198;6.676;2022-08-06T03:44:26;6.00;;;2.08;;
15776;SDS011;7989;51.198;6.676;2022-08-06T03:46:54;2.50;;;1.60;;
15776;SDS011;7989;51.198;6.676;2022-08-06T03:49:32;3.22;;;1.58;;
15776;SDS011;7989;51.198;6.676;2022-08-06T03:52:06;3.42;;;1.70;;
15776;SDS011;7989;51.198;6.676;2022-08-06T03:54:36;4.57;;;2.05;;
15776;SDS011;7989;51.198;6.676;2022-08-06T03:57:09;4.78;;;2.10;;
15776;SDS011;7989;51.198;6.676;2022-08-06T03:59:39;4.22;;;2.20;;
15776;SDS011;7989;51.198;6.676;2022-08-06T04:02:08;4.97;;;1.90;;
15776;SDS011;7989;51.198;6.676;2022-08-06T04:04:36;3.05;;;1.80;;
15776;SDS011;7989;51.198;6.676;2022-08-06T04:07:04;3.80;;;1.85;;
15776;SDS011;7989;51.198;6.676;2022-08-06T04:09:32;4.38;;;1.90;;
15776;SDS011;7989;51.198;6.676;2022-08-06T04:12:00;5.15;;;1.90;;
15776;SDS011;7989;51.198;6.676;2022-08-06T04:14:28;3.20;;;2.03;;
15776;SDS011;7989;51.198;6.676;2022-08-06T04:16:56;2.58;;;1.80;;
15776;SDS011;7989;51.198;6.676;2022-08-06T04:19:24;3.38;;;1.88;;
15776;SDS011;7989;51.198;6.676;2022-08-06T04:21:52;4.07;;;2.17;;
15776;SDS011;7989;51.198;6.676;2022-08-06T04:24:20;3.67;;;2.47;;
15776;SDS011;7989;51.198;6.676;2022-08-06T04:26:48;3.90;;;2.10;;
15776;SDS011;7989;51.198;6.676;2022-08-06T04:29:18;4.57;;;2.13;;
15776;SDS011;7989;51.198;6.676;2022-08-06T04:31:48;2.53;;;1.95;;
15776;SDS011;7989;51.198;6.676;2022-08-06T04:34:19;4.97;;;2.70;;
15776;SDS011;7989;51.198;6.676;2022-08-06T04:36:50;6.53;;;2.42;;
15776;SDS011;7989;51.198;6.676;2022-08-06T04:39:17;4.03;;;2.10;;
15776;SDS011;7989;51.198;6.676;2022-08-06T04:41:46;6.85;;;2.55;;
15776;SDS011;7989;51.198;6.676;2022-08-06T04:44:14;5.60;;;2.05;;
15776;SDS011;7989;51.198;6.676;2022-08-06T04:46:41;3.72;;;2.17;;
15776;SDS011;7989;51.198;6.676;2022-08-06T04:49:13;5.13;;;2.33;;
15776;SDS011;7989;51.198;6.676;2022-08-06T04:51:40;4.65;;;2.15;;
15776;SDS011;7989;51.198;6.676;2022-08-06T04:54:11;3.83;;;2.17;;
15776;SDS011;7989;51.198;6.676;2022-08-06T04:56:38;4.07;;;2.65;;
15776;SDS011;7989;51.198;6.676;2022-08-06T04:59:07;6.30;;;2.88;;
15776;SDS011;7989;51.198;6.676;2022-08-06T05:01:34;3.65;;;2.03;;
15776;SDS011;7989;51.198;6.676;2022-08-06T05:04:00;4.28;;;2.20;;
15776;SDS011;7989;51.198;6.676;2022-08-06T05:06:31;4.85;;;2.60;;
15776;SDS011;7989;51.198;6.676;2022-08-06T05:09:09;4.28;;;2.15;;
15776;SDS011;7989;51.198;6.676;2022-08-06T05:11:40;3.47;;;2.80;;
15776;SDS011;7989;51.198;6.676;2022-08-06T05:14:13;6.68;;;2.78;;
15776;SDS011;7989;51.198;6.676;2022-08-06T05:16:45;3.78;;;2.22;;
15776;SDS011;7989;51.198;6.676;2022-08-06T05:19:15;3.80;;;1.83;;
15776;SDS011;7989;51.198;6.676;2022-08-06T05:21:45;5.93;;;2.17;;
15776;SDS011;7989;51.198;6.676;2022-08-06T05:24:14;3.53;;;2.17;;
15776;SDS011;7989;51.198;6.676;2022-08-06T05:26:41;6.15;;;2.47;;
15776;SDS011;7989;51.198;6.676;2022-08-06T05:29:08;4.30;;;2.35;;
15776;SDS011;7989;51.198;6.676;2022-08-06T05:31:37;5.68;;;2.70;;
15776;SDS011;7989;51.198;6.676;2022-08-06T05:34:08;5.43;;;3.08;;
15776;SDS011;7989;51.198;6.676;2022-08-06T05:36:36;5.15;;;2.70;;
15776;SDS011;7989;51.198;6.676;2022-08-06T05:39:04;7.18;;;3.55;;
15776;SDS011;7989;51.198;6.676;2022-08-06T05:41:31;3.80;;;2.83;;
15776;SDS011;7989;51.198;6.676;2022-08-06T05:44:00;4.78;;;2.72;;
15776;SDS011;7989;51.198;6.676;2022-08-06T05:46:30;6.45;;;3.05;;
15776;SDS011;7989;51.198;6.676;2022-08-06T05:49:01;5.30;;;3.05;;
15776;SDS011;7989;51.198;6.676;2022-08-06T05:51:32;6.05;;;3.33;;
15776;SDS011;7989;51.198;6.676;2022-08-06T05:54:05;6.10;;;3.20;;
15776;SDS011;7989;51.198;6.676;2022-08-06T05:56:37;22.33;;;19.02;;
15776;SDS011;7989;51.198;6.676;2022-08-06T05:59:10;7.78;;;4.65;;
15776;SDS011;7989;51.198;6.676;2022-08-06T06:01:46;16.73;;;15.05;;
15776;SDS011;7989;51.198;6.676;2022-08-06T06:04:15;8.07;;;5.90;;
15776;SDS011;7989;51.198;6.676;2022-08-06T06:06:43;11.45;;;10.32;;
15776;SDS011;7989;51.198;6.676;2022-08-06T06:09:10;13.48;;;12.07;;
15776;SDS011;7989;51.198;6.676;2022-08-06T06:11:38;9.25;;;7.53;;
15776;SDS011;7989;51.198;6.676;2022-08-06T06:14:07;15.18;;;6.15;;
15776;SDS011;7989;51.198;6.676;2022-08-06T06:16:54;8.90;;;4.00;;
15776;SDS011;7989;51.198;6.676;2022-08-06T06:19:31;11.20;;;3.55;;
15776;SDS011;7989;51.198;6.676;2022-08-06T06:22:04;11.90;;;3.95;;
15776;SDS011;7989;51.198;6.676;2022-08-06T06:24:39;9.63;;;3.95;;
15776;SDS011;7989;51.198;6.676;2022-08-06T06:27:11;9.75;;;3.88;;
15776;SDS011;7989;51.198;6.676;2022-08-06T06:29:44;12.73;;;3.70;;
15776;SDS011;7989;51.198;6.676;2022-08-06T06:32:22;11.40;;;4.95;;
15776;SDS011;7989;51.198;6.676;2022-08-06T06:34:59;17.55;;;4.93;;
15776;SDS011;7989;51.198;6.676;2022-08-06T06:37:31;10.98;;;4.22;;
15776;SDS011;7989;51.198;6.676;2022-08-06T06:40:08;11.73;;;4.55;;
15776;SDS011;7989;51.198;6.676;2022-08-06T06:42:42;8.00;;;3.90;;
15776;SDS011;7989;51.198;6.676;2022-08-06T06:45:15;8.68;;;3.80;;
15776;SDS011;7989;51.198;6.676;2022-08-06T06:47:47;7.88;;;4.25;;
15776;SDS011;7989;51.198;6.676;2022-08-06T06:50:21;9.02;;;4.13;;
15776;SDS011;7989;51.198;6.676;2022-08-06T06:52:51;11.65;;;4.40;;
15776;SDS011;7989;51.198;6.676;2022-08-06T06:55:21;6.57;;;3.88;;
15776;SDS011;7989;51.198;6.676;2022-08-06T06:57:52;9.27;;;3.78;;
15776;SDS011;7989;51.198;6.676;2022-08-06T07:00:22;10.25;;;3.55;;
15776;SDS011;7989;51.198;6.676;2022-08-06T07:02:52;8.48;;;3.70;;
15776;SDS011;7989;51.198;6.676;2022-08-06T07:05:21;6.47;;;2.90;;
15776;SDS011;7989;51.198;6.676;2022-08-06T07:07:49;14.73;;;3.83;;
15776;SDS011;7989;51.198;6.676;2022-08-06T07:10:17;10.57;;;3.55;;
15776;SDS011;7989;51.198;6.676;2022-08-06T07:12:46;8.50;;;3.53;;
15776;SDS011;7989;51.198;6.676;2022-08-06T07:15:14;10.18;;;4.15;;
15776;SDS011;7989;51.198;6.676;2022-08-06T07:17:43;7.00;;;3.08;;
15776;SDS011;7989;51.198;6.676;2022-08-06T07:20:12;8.50;;;2.80;;
15776;SDS011;7989;51.198;6.676;2022-08-06T07:22:42;8.40;;;2.70;;
15776;SDS011;7989;51.198;6.676;2022-08-06T07:25:11;7.57;;;2.83;;
15776;SDS011;7989;51.198;6.676;2022-08-06T07:27:40;12.38;;;2.92;;
15776;SDS011;7989;51.198;6.676;2022-08-06T07:30:11;9.50;;;3.03;;
15776;SDS011;7989;51.198;6.676;2022-08-06T07:32:39;6.18;;;2.53;;
15776;SDS011;7989;51.198;6.676;2022-08-06T07:35:09;6.13;;;2.85;;
15776;SDS011;7989;51.198;6.676;2022-08-06T07:37:40;6.53;;;2.80;;
15776;SDS011;7989;51.198;6.676;2022-08-06T07:40:13;5.03;;;2.17;;
15776;SDS011;7989;51.198;6.676;2022-08-06T07:42:46;4.35;;;2.20;;
15776;SDS011;7989;51.198;6.676;2022-08-06T07:45:17;5.45;;;2.00;;
15776;SDS011;7989;51.198;6.676;2022-08-06T07:47:44;8.13;;;2.65;;
15776;SDS011;7989;51.198;6.676;2022-08-06T07:50:12;6.40;;;1.90;;
15776;SDS011;7989;51.198;6.676;2022-08-06T07:52:42;5.05;;;2.00;;
15776;SDS011;7989;51.198;6.676;2022-08-06T07:55:10;8.38;;;4.50;;
15776;SDS011;7989;51.198;6.676;2022-08-06T07:57:39;6.82;;;4.35;;
15776;SDS011;7989;51.198;6.676;2022-08-06T08:00:07;7.18;;;3.05;;
15776;SDS011;7989;51.198;6.676;2022-08-06T08:02:35;8.45;;;3.67;;
15776;SDS011;7989;51.198;6.676;2022-08-06T08:05:03;5.40;;;2.80;;
15776;SDS011;7989;51.198;6.676;2022-08-06T08:07:50;8.75;;;3.33;;
15776;SDS011;7989;51.198;6.676;2022-08-06T08:10:17;5.53;;;2.83;;
15776;SDS011;7989;51.198;6.676;2022-08-06T08:12:46;5.55;;;2.72;;
15776;SDS011;7989;51.198;6.676;2022-08-06T08:15:13;6.50;;;4.20;;
15776;SDS011;7989;51.198;6.676;2022-08-06T08:17:40;7.80;;;4.28;;
15776;SDS011;7989;51.198;6.676;2022-08-06T08:20:08;8.73;;;4.43;;
15776;SDS011;7989;51.198;6.676;2022-08-06T08:22:36;5.25;;;3.00;;
15776;SDS011;7989;51.198;6.676;2022-08-06T08:25:06;8.80;;;2.63;;
15776;SDS011;7989;51.198;6.676;2022-08-06T08:27:34;5.20;;;3.25;;
15776;SDS011;7989;51.198;6.676;2022-08-06T08:30:01;4.40;;;2.13;;
15776;SDS011;7989;51.198;6.676;2022-08-06T08:32:28;5.65;;;1.65;;
15776;SDS011;7989;51.198;6.676;2022-08-06T08:34:55;3.70;;;2.22;;
15776;SDS011;7989;51.198;6.676;2022-08-06T08:37:21;4.15;;;2.00;;
15776;SDS011;7989;51.198;6.676;2022-08-06T08:39:48;6.65;;;2.60;;
15776;SDS011;7989;51.198;6.676;2022-08-06T08:42:18;4.25;;;2.15;;
15776;SDS011;7989;51.198;6.676;2022-08-06T08:44:49;3.58;;;1.60;;
15776;SDS011;7989;51.198;6.676;2022-08-06T08:47:17;2.05;;;1.40;;
15776;SDS011;7989;51.198;6.676;2022-08-06T08:49:46;2.83;;;1.63;;
15776;SDS011;7989;51.198;6.676;2022-08-06T08:52:15;3.42;;;2.40;;
15776;SDS011;7989;51.198;6.676;2022-08-06T08:54:45;6.72;;;1.85;;
15776;SDS011;7989;51.198;6.676;2022-08-06T08:57:17;3.25;;;2.03;;
15776;SDS011;7989;51.198;6.676;2022-08-06T08:59:45;7.40;;;2.30;;
15776;SDS011;7989;51.198;6.676;2022-08-06T09:02:13;2.60;;;1.40;;
15776;SDS011;7989;51.198;6.676;2022-08-06T09:04:40;7.57;;;2.78;;
15776;SDS011;7989;51.198;6.676;2022-08-06T09:07:07;6.88;;;2.65;;
15776;SDS011;7989;51.198;6.676;2022-08-06T09:09:36;5.75;;;2.50;;
15776;SDS011;7989;51.198;6.676;2022-08-06T09:12:04;4.20;;;1.90;;
15776;SDS011;7989;51.198;6.676;2022-08-06T09:14:33;4.95;;;1.70;;
15776;SDS011;7989;51.198;6.676;2022-08-06T09:17:00;4.82;;;2.38;;
15776;SDS011;7989;51.198;6.676;2022-08-06T09:19:28;4.65;;;2.78;;
15776;SDS011;7989;51.198;6.676;2022-08-06T09:21:56;5.70;;;2.33;;
15776;SDS011;7989;51.198;6.676;2022-08-06T09:24:24;4.57;;;2.40;;
15776;SDS011;7989;51.198;6.676;2022-08-06T09:27:01;7.07;;;2.35;;
15776;SDS011;7989;51.198;6.676;2022-08-06T09:29:29;4.43;;;1.80;;
15776;SDS011;7989;51.198;6.676;2022-08-06T09:31:57;5.68;;;2.95;;
15776;SDS011;7989;51.198;6.676;2022-08-06T09:34:30;4.70;;;3.28;;
15776;SDS011;7989;51.198;6.676;2022-08-06T09:36:58;5.30;;;2.70;;
15776;SDS011;7989;51.198;6.676;2022-08-06T09:39:34;5.05;;;2.65;;
15776;SDS011;7989;51.198;6.676;2022-08-06T09:42:05;7.90;;;3.33;;
15776;SDS011;7989;51.198;6.676;2022-08-06T09:44:32;3.25;;;2.38;;
15776;SDS011;7989;51.198;6.676;2022-08-06T09:47:01;4.93;;;2.50;;
15776;SDS011;7989;51.198;6.676;2022-08-06T09:49:42;4.20;;;2.17;;
15776;SDS011;7989;51.198;6.676;2022-08-06T09:52:10;3.72;;;1.70;;
15776;SDS011;7989;51.198;6.676;2022-08-06T09:54:39;3.00;;;1.58;;
15776;SDS011;7989;51.198;6.676;2022-08-06T09:57:06;4.45;;;1.95;;
15776;SDS011;7989;51.198;6.676;2022-08-06T09:59:44;4.93;;;2.08;;
15776;SDS011;7989;51.198;6.676;2022-08-06T10:02:14;5.63;;;3.95;;
15776;SDS011;7989;51.198;6.676;2022-08-06T10:04:42;5.75;;;2.35;;
15776;SDS011;7989;51.198;6.676;2022-08-06T10:07:10;3.42;;;1.92;;
15776;SDS011;7989;51.198;6.676;2022-08-06T10:09:49;3.88;;;2.20;;
15776;SDS011;7989;51.198;6.676;2022-08-06T10:12:17;3.00;;;1.50;;
15776;SDS011;7989;51.198;6.676;2022-08-06T10:14:45;5.18;;;2.80;;
15776;SDS011;7989;51.198;6.676;2022-08-06T10:17:14;10.98;;;2.20;;
15776;SDS011;7989;51.198;6.676;2022-08-06T10:19:42;9.02;;;3.63;;
15776;SDS011;7989;51.198;6.676;2022-08-06T10:22:11;4.85;;;2.20;;
15776;SDS011;7989;51.198;6.676;2022-08-06T10:24:39;1.95;;;1.10;;
15776;SDS011;7989;51.198;6.676;2022-08-06T10:27:08;2.50;;;1.73;;
15776;SDS011;7989;51.198;6.676;2022-08-06T10:29:49;3.03;;;1.20;;
15776;SDS011;7989;51.198;6.676;2022-08-06T10:32:20;3.20;;;1.35;;
15776;SDS011;7989;51.198;6.676;2022-08-06T10:34:49;3.65;;;1.50;;
15776;SDS011;7989;51.198;6.676;2022-08-06T10:37:19;4.38;;;1.65;;
15776;SDS011;7989;51.198;6.676;2022-08-06T10:39:47;2.90;;;1.13;;
15776;SDS011;7989;51.198;6.676;2022-08-06T10:42:21;2.15;;;1.35;;
15776;SDS011;7989;51.198;6.676;2022-08-06T10:44:49;3.70;;;1.25;;
15776;SDS011;7989;51.198;6.676;2022-08-06T10:47:16;2.42;;;1.25;;
15776;SDS011;7989;51.198;6.676;2022-08-06T10:49:46;2.50;;;1.20;;
15776;SDS011;7989;51.198;6.676;2022-08-06T10:52:13;2.38;;;1.10;;
15776;SDS011;7989;51.198;6.676;2022-08-06T10:54:41;2.80;;;1.02;;
15776;SDS011;7989;51.198;6.676;2022-08-06T10:57:08;2.88;;;0.80;;
15776;SDS011;7989;51.198;6.676;2022-08-06T10:59:37;4.13;;;1.40;;
15776;SDS011;7989;51.198;6.676;2022-08-06T11:02:06;2.00;;;0.90;;
15776;SDS011;7989;51.198;6.676;2022-08-06T11:04:44;2.38;;;0.95;;
15776;SDS011;7989;51.198;6.676;2022-08-06T11:10:30;4.68;;;1.10;;
15776;SDS011;7989;51.198;6.676;2022-08-06T11:13:25;5.45;;;1.10;;
15776;SDS011;7989;51.198;6.676;2022-08-06T11:15:57;3.10;;;0.60;;
15776;SDS011;7989;51.198;6.676;2022-08-06T11:18:24;0.65;;;0.47;;
15776;SDS011;7989;51.198;6.676;2022-08-06T11:20:52;2.83;;;0.95;;
15776;SDS011;7989;51.198;6.676;2022-08-06T11:23:26;4.90;;;1.75;;
15776;SDS011;7989;51.198;6.676;2022-08-06T11:25:55;2.33;;;1.50;;
15776;SDS011;7989;51.198;6.676;2022-08-06T11:31:35;4.53;;;1.55;;
15776;SDS011;7989;51.198;6.676;2022-08-06T11:34:05;2.83;;;0.85;;
15776;SDS011;7989;51.198;6.676;2022-08-06T11:36:48;2.58;;;0.80;;
15776;SDS011;7989;51.198;6.676;2022-08-06T11:39:20;0.85;;;0.63;;
15776;SDS011;7989;51.198;6.676;2022-08-06T11:41:52;3.13;;;0.80;;
15776;SDS011;7989;51.198;6.676;2022-08-06T11:44:21;1.65;;;0.80;;
15776;SDS011;7989;51.198;6.676;2022-08-06T11:46:49;3.60;;;0.90;;
15776;SDS011;7989;51.198;6.676;2022-08-06T11:49:37;3.70;;;1.45;;
15776;SDS011;7989;51.198;6.676;2022-08-06T11:52:07;2.20;;;1.00;;
15776;SDS011;7989;51.198;6.676;2022-08-06T11:54:35;1.65;;;1.00;;
15776;SDS011;7989;51.198;6.676;2022-08-06T11:57:19;2.85;;;0.75;;
15776;SDS011;7989;51.198;6.676;2022-08-06T12:00:00;2.83;;;1.02;;
15776;SDS011;7989;51.198;6.676;2022-08-06T12:02:49;1.67;;;0.90;;
15776;SDS011;7989;51.198;6.676;2022-08-06T12:05:36;3.80;;;1.02;;
15776;SDS011;7989;51.198;6.676;2022-08-06T12:08:19;3.13;;;1.20;;
15776;SDS011;7989;51.198;6.676;2022-08-06T12:13:52;2.17;;;0.98;;
15776;SDS011;7989;51.198;6.676;2022-08-06T12:16:30;2.30;;;0.73;;
15776;SDS011;7989;51.198;6.676;2022-08-06T12:18:59;1.70;;;0.75;;
15776;SDS011;7989;51.198;6.676;2022-08-06T12:21:26;1.27;;;0.98;;
15776;SDS011;7989;51.198;6.676;2022-08-06T12:23:55;2.15;;;0.80;;
15776;SDS011;7989;51.198;6.676;2022-08-06T12:26:22;2.70;;;0.60;;
15776;SDS011;7989;51.198;6.676;2022-08-06T12:28:49;1.35;;;0.52;;
15776;SDS011;7989;51.198;6.676;2022-08-06T12:31:29;1.13;;;0.82;;
15776;SDS011;7989;51.198;6.676;2022-08-06T12:33:58;1.63;;;0.75;;
15776;SDS011;7989;51.198;6.676;2022-08-06T12:36:25;3.83;;;1.08;;
15776;SDS011;7989;51.198;6.676;2022-08-06T12:38:56;4.80;;;1.20;;
15776;SDS011;7989;51.198;6.676;2022-08-06T12:41:31;1.45;;;0.75;;
15776;SDS011;7989;51.198;6.676;2022-08-06T12:44:02;1.58;;;0.80;;
15776;SDS011;7989;51.198;6.676;2022-08-06T12:46:29;2.40;;;0.90;;
15776;SDS011;7989;51.198;6.676;2022-08-06T12:48:57;2.70;;;0.70;;
15776;SDS011;7989;51.198;6.676;2022-08-06T12:51:25;4.38;;;1.00;;
15776;SDS011;7989;51.198;6.676;2022-08-06T12:53:53;3.55;;;0.80;;
15776;SDS011;7989;51.198;6.676;2022-08-06T12:56:24;2.17;;;0.82;;
15776;SDS011;7989;51.198;6.676;2022-08-06T12:58:51;8.18;;;1.33;;
15776;SDS011;7989;51.198;6.676;2022-08-06T13:01:20;2.58;;;0.60;;
15776;SDS011;7989;51.198;6.676;2022-08-06T13:03:49;1.15;;;0.52;;
15776;SDS011;7989;51.198;6.676;2022-08-06T13:06:18;1.98;;;0.70;;
15776;SDS011;7989;51.198;6.676;2022-08-06T13:08:49;3.45;;;0.98;;
15776;SDS011;7989;51.198;6.676;2022-08-06T13:11:18;1.40;;;0.73;;
15776;SDS011;7989;51.198;6.676;2022-08-06T13:13:46;1.33;;;0.65;;
15776;SDS011;7989;51.198;6.676;2022-08-06T13:16:16;1.73;;;0.70;;
15776;SDS011;7989;51.198;6.676;2022-08-06T13:19:02;1.20;;;0.60;;
15776;SDS011;7989;51.198;6.676;2022-08-06T13:21:30;2.63;;;2.42;;
15776;SDS011;7989;51.198;6.676;2022-08-06T13:23:58;4.07;;;1.95;;
15776;SDS011;7989;51.198;6.676;2022-08-06T13:26:27;3.00;;;1.10;;
15776;SDS011;7989;51.198;6.676;2022-08-06T13:29:08;1.65;;;0.80;;
15776;SDS011;7989;51.198;6.676;2022-08-06T13:31:37;2.10;;;0.73;;
15776;SDS011;7989;51.198;6.676;2022-08-06T13:34:06;2.92;;;0.98;;
15776;SDS011;7989;51.198;6.676;2022-08-06T13:36:35;1.90;;;0.73;;
15776;SDS011;7989;51.198;6.676;2022-08-06T13:39:18;2.28;;;1.10;;
15776;SDS011;7989;51.198;6.676;2022-08-06T13:41:58;1.52;;;0.70;;
15776;SDS011;7989;51.198;6.676;2022-08-06T13:44:30;2.00;;;0.50;;
15776;SDS011;7989;51.198;6.676;2022-08-06T13:46:59;2.78;;;0.93;;
15776;SDS011;7989;51.198;6.676;2022-08-06T13:49:27;1.92;;;0.95;;
15776;SDS011;7989;51.198;6.676;2022-08-06T13:51:54;1.52;;;0.90;;
15776;SDS011;7989;51.198;6.676;2022-08-06T13:54:21;2.63;;;1.15;;
15776;SDS011;7989;51.198;6.676;2022-08-06T13:56:50;2.80;;;1.20;;
15776;SDS011;7989;51.198;6.676;2022-08-06T13:59:18;2.15;;;1.25;;
15776;SDS011;7989;51.198;6.676;2022-08-06T14:01:46;2.20;;;1.33;;
15776;SDS011;7989;51.198;6.676;2022-08-06T14:04:14;2.65;;;1.10;;
15776;SDS011;7989;51.198;6.676;2022-08-06T14:06:42;1.15;;;0.73;;
15776;SDS011;7989;51.198;6.676;2022-08-06T14:09:10;1.60;;;0.90;;
15776;SDS011;7989;51.198;6.676;2022-08-06T14:11:37;3.35;;;1.15;;
15776;SDS011;7989;51.198;6.676;2022-08-06T14:14:05;2.50;;;1.23;;
15776;SDS011;7989;51.198;6.676;2022-08-06T14:16:32;1.88;;;0.80;;
15776;SDS011;7989;51.198;6.676;2022-08-06T14:18:59;2.05;;;1.02;;
15776;SDS011;7989;51.198;6.676;2022-08-06T14:21:26;5.60;;;0.98;;
15776;SDS011;7989;51.198;6.676;2022-08-06T14:23:53;3.42;;;1.40;;
15776;SDS011;7989;51.198;6.676;2022-08-06T14:26:19;2.53;;;0.95;;
15776;SDS011;7989;51.198;6.676;2022-08-06T14:28:46;3.20;;;0.60;;
15776;SDS011;7989;51.198;6.676;2022-08-06T14:31:14;3.35;;;0.93;;
15776;SDS011;7989;51.198;6.676;2022-08-06T14:33:41;1.55;;;0.75;;
15776;SDS011;7989;51.198;6.676;2022-08-06T14:36:08;1.27;;;0.70;;
15776;SDS011;7989;51.198;6.676;2022-08-06T14:38:35;2.75;;;0.88;;
15776;SDS011;7989;51.198;6.676;2022-08-06T14:41:02;1.63;;;0.85;;
15776;SDS011;7989;51.198;6.676;2022-08-06T14:43:47;2.03;;;0.88;;
15776;SDS011;7989;51.198;6.676;2022-08-06T14:46:32;2.05;;;0.90;;
15776;SDS011;7989;51.198;6.676;2022-08-06T14:49:00;1.52;;;1.15;;
15776;SDS011;7989;51.198;6.676;2022-08-06T14:51:27;1.90;;;0.85;;
15776;SDS011;7989;51.198;6.676;2022-08-06T14:53:54;1.27;;;0.75;;
15776;SDS011;7989;51.198;6.676;2022-08-06T14:56:21;3.70;;;1.10;;
15776;SDS011;7989;51.198;6.676;2022-08-06T14:58:48;2.72;;;1.00;;
15776;SDS011;7989;51.198;6.676;2022-08-06T15:01:15;3.95;;;1.30;;
15776;SDS011;7989;51.198;6.676;2022-08-06T15:03:43;3.53;;;1.38;;
15776;SDS011;7989;51.198;6.676;2022-08-06T15:06:10;3.85;;;1.35;;
15776;SDS011;7989;51.198;6.676;2022-08-06T15:08:37;3.13;;;1.10;;
15776;SDS011;7989;51.198;6.676;2022-08-06T15:11:04;2.55;;;0.80;;
15776;SDS011;7989;51.198;6.676;2022-08-06T15:13:31;1.65;;;0.75;;
15776;SDS011;7989;51.198;6.676;2022-08-06T15:15:58;1.73;;;1.00;;
15776;SDS011;7989;51.198;6.676;2022-08-06T15:18:25;3.33;;;1.23;;
15776;SDS011;7989;51.198;6.676;2022-08-06T15:20:53;2.60;;;0.98;;
15776;SDS011;7989;51.198;6.676;2022-08-06T15:23:20;1.15;;;0.80;;
15776;SDS011;7989;51.198;6.676;2022-08-06T15:25:47;1.90;;;1.05;;
15776;SDS011;7989;51.198;6.676;2022-08-06T15:28:14;2.85;;;0.85;;